createdAt,value
2023-01-10T00:04:18.650Z,24.90
2023-01-10T00:09:27.536Z,25.10
2023-01-10T00:14:35.769Z,24.50
2023-01-10T00:19:44.550Z,23.90
2023-01-10T00:24:52.697Z,26.20
2023-01-10T00:30:05.554Z,25.70
2023-01-10T00:35:14.697Z,26.10
2023-01-10T00:40:23.252Z,26.00
2023-01-10T00:45:31.415Z,25.50
2023-01-10T00:50:39.886Z,25.90
2023-01-10T00:55:48.281Z,27.30
2023-01-10T01:00:57.476Z,27.90
2023-01-10T01:06:08.499Z,27.20
2023-01-10T01:11:16.929Z,26.80
2023-01-10T01:16:25.562Z,26.90
2023-01-10T01:21:34.516Z,28.00
2023-01-10T01:26:43.198Z,27.60
2023-01-10T01:31:52.056Z,25.40
2023-01-10T01:37:00.750Z,24.90
2023-01-10T01:42:22.914Z,26.20
2023-01-10T01:47:31.602Z,25.40
2023-01-10T01:52:39.869Z,25.20
2023-01-10T01:57:49.818Z,26.80
2023-01-10T02:03:03.325Z,27.40
2023-01-10T02:08:12.624Z,26.80
2023-01-10T02:13:24.085Z,28.20
2023-01-10T02:18:32.323Z,24.40
2023-01-10T02:24:14.742Z,28.20
2023-01-10T02:29:45.695Z,26.00
2023-01-10T02:35:11.029Z,27.10
2023-01-10T02:40:32.854Z,27.00
2023-01-10T02:45:47.745Z,26.60
2023-01-10T02:51:02.204Z,27.00
2023-01-10T02:56:40.994Z,26.60
2023-01-10T03:01:57.104Z,26.30
2023-01-10T03:07:15.646Z,26.40
2023-01-10T03:12:30.034Z,27.30
2023-01-10T03:17:41.122Z,24.30
2023-01-10T03:22:53.654Z,25.70
2023-01-10T03:28:06.425Z,25.60
2023-01-10T03:33:17.805Z,26.10
2023-01-10T03:38:33.088Z,27.90
2023-01-10T03:44:05.346Z,24.20
2023-01-10T03:49:16.062Z,23.70
2023-01-10T03:54:24.405Z,23.80
2023-01-10T03:59:32.966Z,23.10
2023-01-10T04:04:41.684Z,25.00
2023-01-10T04:09:49.852Z,26.70
2023-01-10T04:14:58.192Z,24.20
2023-01-10T04:20:07.094Z,25.00
2023-01-10T04:25:15.925Z,23.90
2023-01-10T04:30:24.739Z,23.90
2023-01-10T04:35:33.013Z,26.50
2023-01-10T04:40:41.295Z,24.70
2023-01-10T04:45:49.932Z,24.30
2023-01-10T04:50:58.408Z,23.60
2023-01-10T04:56:18.625Z,26.10
2023-01-10T05:01:27.857Z,23.50
2023-01-10T05:06:37.493Z,23.60
2023-01-10T05:11:45.875Z,24.10
2023-01-10T05:16:54.475Z,25.60
2023-01-10T05:22:02.725Z,25.60
2023-01-10T05:27:10.651Z,24.90
2023-01-10T05:32:19.060Z,24.70
2023-01-10T05:37:27.539Z,25.20
2023-01-10T05:42:36.215Z,24.70
2023-01-10T05:47:45.535Z,26.50
2023-01-10T05:52:53.988Z,22.30
2023-01-10T05:58:03.057Z,25.50
2023-01-10T06:03:11.335Z,22.40
2023-01-10T06:08:19.766Z,24.40
2023-01-10T06:13:29.534Z,22.40
2023-01-10T06:18:37.789Z,21.10
2023-01-10T06:23:45.963Z,22.20
2023-01-10T06:28:54.550Z,20.30
2023-01-10T06:34:03.932Z,20.60
2023-01-10T06:39:12.667Z,20.20
2023-01-10T06:44:21.228Z,21.50
2023-01-10T06:49:30.314Z,22.30
2023-01-10T06:54:38.464Z,21.80
2023-01-10T06:59:46.660Z,20.00
2023-01-10T07:04:54.831Z,20.80
2023-01-10T07:10:04.013Z,21.80
2023-01-10T07:15:13.782Z,19.80
2023-01-10T07:20:22.256Z,20.00
2023-01-10T07:25:31.767Z,19.80
2023-01-10T07:30:40.133Z,20.20
2023-01-10T07:35:48.774Z,18.70
2023-01-10T07:40:57.182Z,19.80
2023-01-10T07:46:09.821Z,18.10
2023-01-10T07:51:18.365Z,18.30
2023-01-10T07:56:26.888Z,19.70
2023-01-10T08:01:35.532Z,18.80
2023-01-10T08:06:43.680Z,18.60
2023-01-10T08:11:52.095Z,19.00
2023-01-10T08:17:00.600Z,19.60
2023-01-10T08:22:09.332Z,19.30
2023-01-10T08:27:17.612Z,24.80
2023-01-10T08:32:25.864Z,33.80
2023-01-10T08:37:35.677Z,30.00
2023-01-10T08:42:43.952Z,25.10
2023-01-10T08:47:52.232Z,22.20
2023-01-10T08:53:01.473Z,23.40
2023-01-10T08:58:09.768Z,22.40
2023-01-10T09:03:18.422Z,24.10
2023-01-10T09:08:27.152Z,24.50
2023-01-10T09:13:36.234Z,22.90
2023-01-10T09:18:44.625Z,22.10
2023-01-10T09:23:52.839Z,22.40
2023-01-10T09:29:01.486Z,23.80
2023-01-10T09:34:09.997Z,23.80
2023-01-10T09:39:18.634Z,22.50
2023-01-10T09:44:43.910Z,22.70
2023-01-10T09:50:02.911Z,23.50
2023-01-10T09:55:25.582Z,23.10
2023-01-10T10:00:41.676Z,23.10
2023-01-10T10:05:51.509Z,22.80
2023-01-10T10:11:21.248Z,22.50
2023-01-10T10:16:39.943Z,21.20
2023-01-10T10:21:57.856Z,20.70
2023-01-10T10:27:16.475Z,22.20
2023-01-10T10:32:42.309Z,21.10
2023-01-10T10:37:52.667Z,19.70
2023-01-10T10:43:13.450Z,17.60
2023-01-10T10:48:29.117Z,18.00
2023-01-10T10:53:38.606Z,20.10
2023-01-10T10:58:50.556Z,17.60
2023-01-10T11:04:02.971Z,19.10
2023-01-10T11:09:13.302Z,25.40
2023-01-10T11:14:46.414Z,27.80
2023-01-10T11:20:03.400Z,28.70
2023-01-10T11:25:20.464Z,27.50
2023-01-10T11:30:32.202Z,24.30
2023-01-10T11:35:42.324Z,25.30
2023-01-10T11:40:59.351Z,27.00
2023-01-10T11:46:16.308Z,23.60
2023-01-10T11:51:29.128Z,21.80
2023-01-10T11:56:40.279Z,19.60
2023-01-10T12:01:56.328Z,18.10
2023-01-10T12:07:10.161Z,16.30
2023-01-10T12:12:25.916Z,17.00
2023-01-10T12:17:36.968Z,17.70
2023-01-10T12:22:47.541Z,17.30
2023-01-10T12:27:58.291Z,17.90
2023-01-10T12:33:09.399Z,20.90
2023-01-10T12:38:47.839Z,19.60
2023-01-10T12:44:16.833Z,17.90
2023-01-10T12:49:31.730Z,19.00
2023-01-10T12:54:40.357Z,18.30
2023-01-10T12:59:48.796Z,16.90
2023-01-10T13:05:02.968Z,17.30
2023-01-10T13:10:16.983Z,17.20
2023-01-10T13:15:31.870Z,18.20
2023-01-10T13:20:48.058Z,16.80
2023-01-10T13:26:09.454Z,16.20
2023-01-10T13:31:31.663Z,17.50
2023-01-10T13:36:44.586Z,17.40
2023-01-10T13:42:44.594Z,18.90
2023-01-10T13:48:13.356Z,62.70
2023-01-10T13:53:52.934Z,55.60
2023-01-10T13:59:20.133Z,34.10
2023-01-10T14:04:30.603Z,25.30
2023-01-10T14:09:45.322Z,22.50
2023-01-10T14:15:00.859Z,23.30
2023-01-10T14:20:19.719Z,29.90
2023-01-10T14:25:30.515Z,39.70
2023-01-10T14:30:41.657Z,42.40
2023-01-10T14:35:56.610Z,48.30
2023-01-10T14:41:08.695Z,57.40
2023-01-10T14:46:22.736Z,62.70
2023-01-10T14:51:32.527Z,50.50
2023-01-10T14:56:49.958Z,47.00
2023-01-10T15:07:17.729Z,29.40
2023-01-10T15:12:29.340Z,29.20
2023-01-10T15:17:38.916Z,31.90
2023-01-10T15:22:50.260Z,28.00
2023-01-10T15:27:59.898Z,20.90
2023-01-10T15:33:13.761Z,20.30
2023-01-10T15:38:30.854Z,19.40
2023-01-10T15:43:40.706Z,20.70
2023-01-10T15:49:00.972Z,17.60
2023-01-10T15:54:30.333Z,17.20
2023-01-10T15:59:41.926Z,17.30
2023-01-10T16:04:53.645Z,17.80
2023-01-10T16:10:06.450Z,16.80
2023-01-10T16:15:22.329Z,17.30
2023-01-10T16:20:34.724Z,18.50
2023-01-10T16:30:53.198Z,17.50
2023-01-10T16:36:02.857Z,17.00
2023-01-10T16:41:33.587Z,16.80
2023-01-10T16:46:42.060Z,15.70
2023-01-10T16:51:50.421Z,14.90
2023-01-10T16:56:58.849Z,16.10
2023-01-10T17:02:19.573Z,14.80
2023-01-10T17:07:27.961Z,17.70
2023-01-10T17:12:39.412Z,16.50
2023-01-10T17:17:47.713Z,17.60
2023-01-10T17:22:56.007Z,17.30
2023-01-10T17:28:05.460Z,16.70
2023-01-10T17:33:14.025Z,16.10
2023-01-10T17:38:23.569Z,17.80
2023-01-10T17:43:33.345Z,16.00
2023-01-10T17:48:42.125Z,15.00
2023-01-10T17:53:50.889Z,16.60
2023-01-10T17:58:59.142Z,17.10
2023-01-10T18:04:08.626Z,16.40
2023-01-10T18:09:17.185Z,17.20
2023-01-10T18:14:39.019Z,17.10
2023-01-10T18:19:48.166Z,27.80
2023-01-10T18:24:57.761Z,28.30
2023-01-10T18:30:06.615Z,23.30
2023-01-10T18:35:15.298Z,23.50
2023-01-10T18:40:23.991Z,29.10
2023-01-10T18:45:32.625Z,30.40
2023-01-10T18:50:41.411Z,35.80
2023-01-10T18:55:59.035Z,30.60
2023-01-10T19:01:14.545Z,25.40
2023-01-10T19:06:25.943Z,22.70
2023-01-10T19:11:34.509Z,18.20
2023-01-10T19:16:42.932Z,17.80
2023-01-10T19:21:51.445Z,17.20
2023-01-10T19:27:00.406Z,15.00
2023-01-10T19:32:09.096Z,15.10
2023-01-10T19:37:17.417Z,17.60
2023-01-10T19:42:26.259Z,17.20
2023-01-10T19:47:34.757Z,20.70
2023-01-10T19:52:44.032Z,18.90
2023-01-10T19:57:52.647Z,20.10
2023-01-10T20:03:01.141Z,25.00
2023-01-10T20:08:09.925Z,25.20
2023-01-10T20:13:18.241Z,23.80
2023-01-10T20:18:26.689Z,20.60
2023-01-10T20:23:36.622Z,20.00
2023-01-10T20:28:46.105Z,20.20
2023-01-10T20:33:54.563Z,20.00
2023-01-10T20:39:03.223Z,20.00
2023-01-10T20:44:11.405Z,17.90
2023-01-10T20:49:19.700Z,17.40
2023-01-10T20:54:28.456Z,17.60
2023-01-10T20:59:37.197Z,18.50
2023-01-10T21:04:45.518Z,22.90
2023-01-10T21:09:54.496Z,24.10
2023-01-10T21:15:03.256Z,25.10
2023-01-10T21:20:14.259Z,24.50
2023-01-10T21:25:22.693Z,25.10
2023-01-10T21:30:31.371Z,26.00
2023-01-10T21:35:40.689Z,27.30
2023-01-10T21:40:48.863Z,28.20
2023-01-10T21:46:01.952Z,29.90
2023-01-10T21:51:10.491Z,51.00
2023-01-10T21:56:18.824Z,46.10
2023-01-10T22:01:27.039Z,40.30
2023-01-10T22:06:35.558Z,33.50
2023-01-10T22:11:44.155Z,29.20
2023-01-10T22:16:52.543Z,29.50
2023-01-10T22:22:01.582Z,25.50
2023-01-10T22:27:10.230Z,26.30
2023-01-10T22:32:18.981Z,22.70
2023-01-10T22:37:27.207Z,22.60
2023-01-10T22:42:35.806Z,22.90
2023-01-10T22:47:44.573Z,22.60
2023-01-10T22:52:53.488Z,22.70
2023-01-10T22:58:02.251Z,23.00
2023-01-10T23:03:10.795Z,19.90
2023-01-10T23:08:19.047Z,18.40
2023-01-10T23:13:28.462Z,15.40
2023-01-10T23:18:37.615Z,15.60
2023-01-10T23:23:47.120Z,14.40
2023-01-10T23:28:55.582Z,14.30
2023-01-10T23:34:03.905Z,13.40
2023-01-10T23:39:12.906Z,13.20
2023-01-10T23:44:21.427Z,12.20
2023-01-10T23:49:30.775Z,13.20
2023-01-10T23:54:39.475Z,13.00
2023-01-10T23:59:47.800Z,13.00
